Airfield :
LOGIN :

Register | Disclaimer

   EN    FR    IT 

 










Legend :    VFR   Marginal VFR   IFR   Intensive IFR   Very Intensive IFR
Visi :
Ceiling :
>= 8 km
>= 3000ft
5 to 8 km
1000 to 3000 ft
1500m to 5 km
500 to 1000 ft
800 to 1500m
200 to 500 ft
< 800m
< 200 ft
Symbols :   Thunderstorms  Fog  Heavy snow  Heavy precipitations  Wind > 20 kt
SIGMETs :     Misc.  Thunderstorms  Icing  Turbulence  Mountain Waves  Volcanic Ashes






- Airport Elevation : 75 ft
- IATA code : YEO


EGDY - RNAS Yeovilton

CURRENT METAR :
  • 201319Z 19018G28KT 9999 FEW014 SCT025 17/13 Q0998 TEMPO 8000 -SHRA SCT020 RMK BLU TEMPO WHT

EXPIRED METARs :
  • 201250Z 19019KT 9999 FEW018 SCT024 17/12 Q0999 NOSIG RMK WHT WHT
  • 201219Z 19017KT 9999 FEW018 SCT024 17/13 Q0999 NOSIG RMK WHT WHT
  • 201150Z 19015KT 9999 FEW020 BKN024 16/13 Q0999 NOSIG RMK WHT WHT
  • 201119Z 18018G28KT 9999 FEW014 BKN022 16/13 Q0999 NOSIG RMK WHT WHT
  • 201050Z 19019KT 9999 FEW014 SCT022 BKN030 17/13 Q0999 NOSIG RMK WHT WHT

TAF TAF EGDY
Valid from the 20 at 12:00 until the 20 at 21:00 UTC


201128Z 2012/2021 19015G25KT 9999 SCT022
TEMPO 2012/2015 19020G35KT
TEMPO 2014/2018 6000 SHRA SCT014 BKN020TCU
BECMG 2017/2019 17010KT SCT030



MET'MAP, your aeronautical weather chart ! - Copyright ORBIFLY December 2007 - Disclaimer

ORBIFLY MET'MAP TEAM :

Programming & Development : Alexandra Zaïnal
Concept & original design : Baudouin d'Aumeries
Assistance for programming : Marc-Olivier Méhu
Technical & hardware support : Manuel Goepfert

Contact : metmap@orbifly.com




SOURCES & CREDITS :

   NOAA